sensor_id;sensor_type;location;lat;lon;timestamp;pressure;altitude;pressure_sealevel;temperature;humidity
68506;BME280;55509;50.680;17.942;2023-02-01T00:02:11;99219.77;;;3.00;81.20
68506;BME280;55509;50.680;17.942;2023-02-01T00:05:12;99208.64;;;2.57;82.13
68506;BME280;55509;50.680;17.942;2023-02-01T00:08:14;99194.35;;;2.19;83.66
68506;BME280;55509;50.680;17.942;2023-02-01T00:11:15;99199.41;;;1.92;84.67
68506;BME280;55509;50.680;17.942;2023-02-01T00:14:16;99194.58;;;1.71;85.52
68506;BME280;55509;50.680;17.942;2023-02-01T00:17:18;99176.36;;;1.53;85.74
68506;BME280;55509;50.680;17.942;2023-02-01T00:20:19;99166.83;;;1.37;87.90
68506;BME280;55509;50.680;17.942;2023-02-01T00:23:21;99159.88;;;1.26;88.89
68506;BME280;55509;50.680;17.942;2023-02-01T00:26:25;99155.54;;;1.24;88.45
68506;BME280;55509;50.680;17.942;2023-02-01T00:29:27;99160.57;;;1.23;88.59
68506;BME280;55509;50.680;17.942;2023-02-01T00:32:29;99172.35;;;1.22;88.98
68506;BME280;55509;50.680;17.942;2023-02-01T00:35:36;99194.69;;;1.19;89.24
68506;BME280;55509;50.680;17.942;2023-02-01T00:38:37;99201.25;;;1.14;90.48
68506;BME280;55509;50.680;17.942;2023-02-01T00:41:39;99209.73;;;1.10;90.63
68506;BME280;55509;50.680;17.942;2023-02-01T00:44:41;99220.13;;;1.09;90.68
68506;BME280;55509;50.680;17.942;2023-02-01T00:47:43;99219.09;;;1.10;90.83
68506;BME280;55509;50.680;17.942;2023-02-01T00:50:44;99238.48;;;1.10;90.86
68506;BME280;55509;50.680;17.942;2023-02-01T00:53:46;99228.42;;;1.07;90.75
68506;BME280;55509;50.680;17.942;2023-02-01T00:56:47;99219.95;;;1.04;91.07
68506;BME280;55509;50.680;17.942;2023-02-01T00:59:49;99203.66;;;1.05;91.11
68506;BME280;55509;50.680;17.942;2023-02-01T01:02:50;99189.13;;;1.10;90.53
68506;BME280;55509;50.680;17.942;2023-02-01T01:05:56;99210.77;;;1.14;90.45
68506;BME280;55509;50.680;17.942;2023-02-01T01:08:58;99224.13;;;1.18;90.33
68506;BME280;55509;50.680;17.942;2023-02-01T01:12:00;99219.28;;;1.23;90.16
68506;BME280;55509;50.680;17.942;2023-02-01T01:15:05;99227.45;;;1.25;90.07
68506;BME280;55509;50.680;17.942;2023-02-01T01:18:07;99221.55;;;1.27;89.95
68506;BME280;55509;50.680;17.942;2023-02-01T01:21:09;99223.98;;;1.25;89.72
68506;BME280;55509;50.680;17.942;2023-02-01T01:24:11;99224.84;;;1.24;90.32
68506;BME280;55509;50.680;17.942;2023-02-01T01:27:12;99223.62;;;1.20;90.32
68506;BME280;55509;50.680;17.942;2023-02-01T01:30:14;99221.02;;;1.18;90.32
68506;BME280;55509;50.680;17.942;2023-02-01T01:33:16;99215.13;;;1.19;90.58
68506;BME280;55509;50.680;17.942;2023-02-01T01:36:17;99212.52;;;1.20;90.32
68506;BME280;55509;50.680;17.942;2023-02-01T01:39:19;99207.52;;;1.21;90.78
68506;BME280;55509;50.680;17.942;2023-02-01T01:42:21;99201.96;;;1.20;90.62
68506;BME280;55509;50.680;17.942;2023-02-01T01:45:24;99192.44;;;1.20;90.78
68506;BME280;55509;50.680;17.942;2023-02-01T01:48:27;99189.14;;;1.19;90.75
68506;BME280;55509;50.680;17.942;2023-02-01T01:51:31;99199.20;;;1.21;90.78
68506;BME280;55509;50.680;17.942;2023-02-01T01:54:40;99195.04;;;1.26;90.68
68506;BME280;55509;50.680;17.942;2023-02-01T01:57:47;99194.71;;;1.32;90.57
68506;BME280;55509;50.680;17.942;2023-02-01T02:00:51;99200.44;;;1.36;90.45
68506;BME280;55509;50.680;17.942;2023-02-01T02:03:53;99199.92;;;1.38;90.46
68506;BME280;55509;50.680;17.942;2023-02-01T02:06:59;99202.17;;;1.38;90.46
68506;BME280;55509;50.680;17.942;2023-02-01T02:10:07;99198.88;;;1.38;90.23
68506;BME280;55509;50.680;17.942;2023-02-01T02:13:11;99201.83;;;1.40;90.20
68506;BME280;55509;50.680;17.942;2023-02-01T02:16:31;99200.09;;;1.43;90.12
68506;BME280;55509;50.680;17.942;2023-02-01T02:29:28;99221.05;;;1.45;89.73
68506;BME280;55509;50.680;17.942;2023-02-01T02:36:00;99221.74;;;1.41;90.11
68506;BME280;55509;50.680;17.942;2023-02-01T02:45:30;99224.10;;;1.10;90.04
68506;BME280;55509;50.680;17.942;2023-02-01T02:49:05;99228.06;;;1.00;90.63
68506;BME280;55509;50.680;17.942;2023-02-01T02:52:15;99226.64;;;0.88;91.06
68506;BME280;55509;50.680;17.942;2023-02-01T02:55:37;99237.16;;;0.79;91.70
68506;BME280;55509;50.680;17.942;2023-02-01T02:58:42;99230.73;;;0.74;91.57
68506;BME280;55509;50.680;17.942;2023-02-01T03:02:02;99228.48;;;0.73;91.94
68506;BME280;55509;50.680;17.942;2023-02-01T03:05:22;99228.49;;;0.76;92.41
68506;BME280;55509;50.680;17.942;2023-02-01T03:08:24;99226.07;;;0.77;92.49
68506;BME280;55509;50.680;17.942;2023-02-01T03:11:26;99216.55;;;0.78;92.49
68506;BME280;55509;50.680;17.942;2023-02-01T03:14:50;99209.64;;;0.78;92.82
68506;BME280;55509;50.680;17.942;2023-02-01T03:17:53;99211.02;;;0.78;92.51
68506;BME280;55509;50.680;17.942;2023-02-01T03:20:56;99209.28;;;0.77;92.82
68506;BME280;55509;50.680;17.942;2023-02-01T03:24:02;99210.34;;;0.81;92.87
68506;BME280;55509;50.680;17.942;2023-02-01T03:27:11;99213.29;;;0.88;92.79
68506;BME280;55509;50.680;17.942;2023-02-01T03:30:21;99211.95;;;0.98;93.13
68506;BME280;55509;50.680;17.942;2023-02-01T03:33:25;99211.80;;;1.08;92.98
68506;BME280;55509;50.680;17.942;2023-02-01T03:36:29;99216.67;;;1.16;92.72
68506;BME280;55509;50.680;17.942;2023-02-01T03:39:34;99213.05;;;1.24;92.56
68506;BME280;55509;50.680;17.942;2023-02-01T03:42:38;99207.69;;;1.28;92.30
68506;BME280;55509;50.680;17.942;2023-02-01T03:45:42;99209.77;;;1.32;92.19
68506;BME280;55509;50.680;17.942;2023-02-01T03:48:44;99207.88;;;1.35;92.40
68506;BME280;55509;50.680;17.942;2023-02-01T03:51:47;99206.86;;;1.41;91.74
68506;BME280;55509;50.680;17.942;2023-02-01T03:54:48;99204.60;;;1.49;91.52
68506;BME280;55509;50.680;17.942;2023-02-01T04:00:59;99206.89;;;1.69;90.73
68506;BME280;55509;50.680;17.942;2023-02-01T04:04:01;99204.80;;;1.78;90.35
68506;BME280;55509;50.680;17.942;2023-02-01T04:07:03;99203.92;;;1.84;89.92
68506;BME280;55509;50.680;17.942;2023-02-01T04:10:05;99207.73;;;1.86;89.44
68506;BME280;55509;50.680;17.942;2023-02-01T04:13:06;99205.65;;;1.88;88.87
68506;BME280;55509;50.680;17.942;2023-02-01T04:16:08;99200.10;;;1.95;88.42
68506;BME280;55509;50.680;17.942;2023-02-01T04:19:10;99198.37;;;2.03;87.93
68506;BME280;55509;50.680;17.942;2023-02-01T04:22:11;99193.85;;;2.04;87.64
68506;BME280;55509;50.680;17.942;2023-02-01T04:25:13;99190.21;;;2.03;87.04
68506;BME280;55509;50.680;17.942;2023-02-01T04:28:15;99188.83;;;2.03;86.88
68506;BME280;55509;50.680;17.942;2023-02-01T04:31:16;99186.74;;;2.03;86.92
68506;BME280;55509;50.680;17.942;2023-02-01T04:34:18;99180.33;;;2.03;86.52
68506;BME280;55509;50.680;17.942;2023-02-01T04:37:19;99182.59;;;2.04;86.26
68506;BME280;55509;50.680;17.942;2023-02-01T04:40:21;99180.33;;;2.06;85.75
68506;BME280;55509;50.680;17.942;2023-02-01T04:43:22;99177.20;;;2.07;85.36
68506;BME280;55509;50.680;17.942;2023-02-01T04:46:24;99177.38;;;2.04;85.37
68506;BME280;55509;50.680;17.942;2023-02-01T04:49:25;99182.05;;;2.02;85.26
68506;BME280;55509;50.680;17.942;2023-02-01T04:52:28;99180.50;;;2.01;84.99
68506;BME280;55509;50.680;17.942;2023-02-01T04:55:29;99180.50;;;2.03;84.65
68506;BME280;55509;50.680;17.942;2023-02-01T04:58:32;99178.93;;;2.06;84.11
68506;BME280;55509;50.680;17.942;2023-02-01T05:01:33;99182.73;;;2.10;83.85
68506;BME280;55509;50.680;17.942;2023-02-01T05:04:35;99180.13;;;2.14;83.60
68506;BME280;55509;50.680;17.942;2023-02-01T05:07:36;99174.58;;;2.20;83.05
68506;BME280;55509;50.680;17.942;2023-02-01T05:10:38;99168.48;;;2.27;83.14
68506;BME280;55509;50.680;17.942;2023-02-01T05:13:39;99170.20;;;2.31;82.26
68506;BME280;55509;50.680;17.942;2023-02-01T05:16:50;99165.85;;;2.35;81.55
68506;BME280;55509;50.680;17.942;2023-02-01T05:19:51;99164.28;;;2.35;81.80
68506;BME280;55509;50.680;17.942;2023-02-01T05:22:53;99156.48;;;2.34;81.44
68506;BME280;55509;50.680;17.942;2023-02-01T05:25:58;99155.95;;;2.39;80.87
68506;BME280;55509;50.680;17.942;2023-02-01T05:29:00;99159.58;;;2.44;80.93
68506;BME280;55509;50.680;17.942;2023-02-01T05:32:02;99160.08;;;2.49;80.11
68506;BME280;55509;50.680;17.942;2023-02-01T05:35:03;99156.73;;;2.57;79.98
68506;BME280;55509;50.680;17.942;2023-02-01T05:38:05;99151.00;;;2.63;79.59
68506;BME280;55509;50.680;17.942;2023-02-01T05:41:06;99148.73;;;2.67;79.14
68506;BME280;55509;50.680;17.942;2023-02-01T05:44:08;99154.61;;;2.70;78.90
68506;BME280;55509;50.680;17.942;2023-02-01T05:47:09;99151.66;;;2.72;78.66
68506;BME280;55509;50.680;17.942;2023-02-01T05:50:11;99153.20;;;2.73;79.09
68506;BME280;55509;50.680;17.942;2023-02-01T05:53:13;99150.23;;;2.76;78.12
68506;BME280;55509;50.680;17.942;2023-02-01T05:56:14;99149.52;;;2.82;78.09
68506;BME280;55509;50.680;17.942;2023-02-01T05:59:16;99146.72;;;2.86;77.80
68506;BME280;55509;50.680;17.942;2023-02-01T06:02:18;99146.55;;;2.88;77.80
68506;BME280;55509;50.680;17.942;2023-02-01T06:05:20;99151.40;;;2.88;77.70
68506;BME280;55509;50.680;17.942;2023-02-01T06:08:21;99145.52;;;2.83;77.86
68506;BME280;55509;50.680;17.942;2023-02-01T06:11:25;99141.89;;;2.80;77.60
68506;BME280;55509;50.680;17.942;2023-02-01T06:14:27;99129.41;;;2.77;77.67
68506;BME280;55509;50.680;17.942;2023-02-01T06:17:28;99127.69;;;2.72;77.90
68506;BME280;55509;50.680;17.942;2023-02-01T06:20:30;99127.20;;;2.69;77.65
68506;BME280;55509;50.680;17.942;2023-02-01T06:23:32;99122.49;;;2.70;77.56
68506;BME280;55509;50.680;17.942;2023-02-01T06:26:33;99124.56;;;2.71;77.55
68506;BME280;55509;50.680;17.942;2023-02-01T06:29:35;99132.72;;;2.73;77.37
68506;BME280;55509;50.680;17.942;2023-02-01T06:32:36;99134.63;;;2.74;77.63
68506;BME280;55509;50.680;17.942;2023-02-01T06:35:38;99136.73;;;2.72;77.40
68506;BME280;55509;50.680;17.942;2023-02-01T06:38:39;99134.31;;;2.68;77.68
68506;BME280;55509;50.680;17.942;2023-02-01T06:41:41;99139.55;;;2.64;77.72
68506;BME280;55509;50.680;17.942;2023-02-01T06:44:44;99138.70;;;2.58;77.97
68506;BME280;55509;50.680;17.942;2023-02-01T06:47:45;99137.66;;;2.54;78.10
68506;BME280;55509;50.680;17.942;2023-02-01T06:50:46;99137.52;;;2.51;78.36
68506;BME280;55509;50.680;17.942;2023-02-01T06:53:48;99133.01;;;2.48;78.57
68506;BME280;55509;50.680;17.942;2023-02-01T06:56:50;99132.66;;;2.47;78.83
68506;BME280;55509;50.680;17.942;2023-02-01T06:59:51;99133.34;;;2.51;78.95
68506;BME280;55509;50.680;17.942;2023-02-01T07:02:52;99131.76;;;2.55;78.95
68506;BME280;55509;50.680;17.942;2023-02-01T07:05:55;99129.14;;;2.61;79.03
68506;BME280;55509;50.680;17.942;2023-02-01T07:08:57;99128.59;;;2.66;79.01
68506;BME280;55509;50.680;17.942;2023-02-01T07:11:58;99127.00;;;2.70;78.81
68506;BME280;55509;50.680;17.942;2023-02-01T07:15:00;99129.24;;;2.75;78.92
68506;BME280;55509;50.680;17.942;2023-02-01T07:18:03;99126.44;;;2.79;78.72
68506;BME280;55509;50.680;17.942;2023-02-01T07:21:05;99127.11;;;2.83;78.49
68506;BME280;55509;50.680;17.942;2023-02-01T07:24:06;99128.14;;;2.87;78.25
68506;BME280;55509;50.680;17.942;2023-02-01T07:27:08;99130.00;;;2.95;78.17
68506;BME280;55509;50.680;17.942;2023-02-01T07:30:10;99129.77;;;3.03;77.89
68506;BME280;55509;50.680;17.942;2023-02-01T07:33:12;99130.09;;;3.09;77.72
68506;BME280;55509;50.680;17.942;2023-02-01T07:36:16;99131.98;;;3.13;77.62
68506;BME280;55509;50.680;17.942;2023-02-01T07:39:18;99130.89;;;3.18;77.37
68506;BME280;55509;50.680;17.942;2023-02-01T07:42:19;99129.65;;;3.22;77.17
68506;BME280;55509;50.680;17.942;2023-02-01T07:45:21;99136.22;;;3.25;77.21
68506;BME280;55509;50.680;17.942;2023-02-01T07:48:23;99132.54;;;3.32;76.76
68506;BME280;55509;50.680;17.942;2023-02-01T07:51:25;99134.57;;;3.38;76.50
68506;BME280;55509;50.680;17.942;2023-02-01T07:54:26;99132.60;;;3.45;76.32
68506;BME280;55509;50.680;17.942;2023-02-01T07:57:28;99126.48;;;3.49;75.95
68506;BME280;55509;50.680;17.942;2023-02-01T08:00:29;99126.81;;;3.51;75.71
68506;BME280;55509;50.680;17.942;2023-02-01T08:03:56;99125.07;;;3.54;75.72
68506;BME280;55509;50.680;17.942;2023-02-01T08:06:58;99125.56;;;3.55;75.73
68506;BME280;55509;50.680;17.942;2023-02-01T08:09:59;99125.38;;;3.58;75.66
68506;BME280;55509;50.680;17.942;2023-02-01T08:13:01;99130.36;;;3.63;75.26
68506;BME280;55509;50.680;17.942;2023-02-01T08:16:04;99132.05;;;3.69;74.62
68506;BME280;55509;50.680;17.942;2023-02-01T08:19:06;99127.51;;;3.72;75.04
68506;BME280;55509;50.680;17.942;2023-02-01T08:22:07;99127.68;;;3.72;75.05
68506;BME280;55509;50.680;17.942;2023-02-01T08:25:09;99127.84;;;3.73;74.89
68506;BME280;55509;50.680;17.942;2023-02-01T08:28:11;99124.19;;;3.74;74.67
68506;BME280;55509;50.680;17.942;2023-02-01T08:31:14;99120.66;;;3.79;74.33
68506;BME280;55509;50.680;17.942;2023-02-01T08:34:16;99121.09;;;3.89;74.29
68506;BME280;55509;50.680;17.942;2023-02-01T08:37:17;99117.61;;;4.05;74.02
68506;BME280;55509;50.680;17.942;2023-02-01T08:40:19;99115.52;;;4.21;73.30
68506;BME280;55509;50.680;17.942;2023-02-01T08:43:22;99115.94;;;4.31;73.46
68506;BME280;55509;50.680;17.942;2023-02-01T08:46:24;99112.22;;;4.36;73.02
68506;BME280;55509;50.680;17.942;2023-02-01T08:49:26;99115.84;;;4.38;72.89
68506;BME280;55509;50.680;17.942;2023-02-01T08:52:27;99106.98;;;4.38;72.77
68506;BME280;55509;50.680;17.942;2023-02-01T08:55:29;99107.65;;;4.39;73.03
68506;BME280;55509;50.680;17.942;2023-02-01T08:58:30;99105.48;;;4.45;72.63
68506;BME280;55509;50.680;17.942;2023-02-01T09:01:32;99104.65;;;4.57;72.50
68506;BME280;55509;50.680;17.942;2023-02-01T09:04:33;99101.03;;;4.67;72.21
68506;BME280;55509;50.680;17.942;2023-02-01T09:07:35;99103.41;;;4.73;71.79
68506;BME280;55509;50.680;17.942;2023-02-01T09:10:36;99101.76;;;4.78;71.62
68506;BME280;55509;50.680;17.942;2023-02-01T09:13:38;99097.16;;;4.82;71.47
68506;BME280;55509;50.680;17.942;2023-02-01T09:16:39;99103.48;;;4.92;71.15
68506;BME280;55509;50.680;17.942;2023-02-01T09:19:41;99102.27;;;5.04;71.18
68506;BME280;55509;50.680;17.942;2023-02-01T09:22:43;99098.95;;;5.26;70.57
68506;BME280;55509;50.680;17.942;2023-02-01T09:25:44;99099.52;;;5.56;69.26
68506;BME280;55509;50.680;17.942;2023-02-01T09:28:45;99102.01;;;5.74;68.84
68506;BME280;55509;50.680;17.942;2023-02-01T09:31:47;99104.06;;;5.86;68.51
68506;BME280;55509;50.680;17.942;2023-02-01T09:34:49;99098.94;;;5.79;68.02
68506;BME280;55509;50.680;17.942;2023-02-01T09:37:52;99102.10;;;5.68;68.12
68506;BME280;55509;50.680;17.942;2023-02-01T09:40:54;99098.55;;;5.62;68.45
68506;BME280;55509;50.680;17.942;2023-02-01T09:44:19;99095.89;;;5.54;68.88
68506;BME280;55509;50.680;17.942;2023-02-01T09:47:18;99096.27;;;5.42;68.72
68506;BME280;55509;50.680;17.942;2023-02-01T09:50:43;99095.75;;;5.31;68.98
68506;BME280;55509;50.680;17.942;2023-02-01T09:53:43;99092.91;;;5.24;69.29
68506;BME280;55509;50.680;17.942;2023-02-01T10:00:00;99092.30;;;5.05;69.34
68506;BME280;55509;50.680;17.942;2023-02-01T10:03:03;99090.24;;;5.03;69.88
68506;BME280;55509;50.680;17.942;2023-02-01T10:06:09;99089.33;;;5.07;69.94
68506;BME280;55509;50.680;17.942;2023-02-01T10:09:19;99086.92;;;5.16;69.91
68506;BME280;55509;50.680;17.942;2023-02-01T10:18:55;99083.86;;;5.65;69.40
68506;BME280;55509;50.680;17.942;2023-02-01T10:22:23;99075.38;;;5.80;68.52
68506;BME280;55509;50.680;17.942;2023-02-01T10:25:28;99071.51;;;5.91;68.39
68506;BME280;55509;50.680;17.942;2023-02-01T10:28:32;99065.55;;;6.03;68.15
68506;BME280;55509;50.680;17.942;2023-02-01T10:31:36;99063.75;;;6.33;67.18
68506;BME280;55509;50.680;17.942;2023-02-01T10:34:38;99054.52;;;6.56;65.97
68506;BME280;55509;50.680;17.942;2023-02-01T10:37:41;99051.81;;;6.69;66.31
68506;BME280;55509;50.680;17.942;2023-02-01T10:40:43;99047.63;;;6.98;65.75
68506;BME280;55509;50.680;17.942;2023-02-01T10:43:45;99047.45;;;7.21;64.89
68506;BME280;55509;50.680;17.942;2023-02-01T10:46:49;99050.85;;;7.32;64.10
68506;BME280;55509;50.680;17.942;2023-02-01T10:52:57;99050.89;;;7.01;64.69
68506;BME280;55509;50.680;17.942;2023-02-01T10:56:08;99052.12;;;6.94;65.01
68506;BME280;55509;50.680;17.942;2023-02-01T10:59:15;99050.55;;;6.78;65.35
68506;BME280;55509;50.680;17.942;2023-02-01T11:02:25;99050.06;;;6.60;66.07
68506;BME280;55509;50.680;17.942;2023-02-01T11:05:29;99044.64;;;6.52;66.36
68506;BME280;55509;50.680;17.942;2023-02-01T11:08:54;99041.16;;;6.44;66.80
68506;BME280;55509;50.680;17.942;2023-02-01T11:11:57;99038.34;;;6.29;66.98
68506;BME280;55509;50.680;17.942;2023-02-01T11:15:01;99038.31;;;6.13;67.55
68506;BME280;55509;50.680;17.942;2023-02-01T11:18:37;99037.54;;;5.88;67.86
68506;BME280;55509;50.680;17.942;2023-02-01T11:21:32;99030.22;;;5.59;68.30
68506;BME280;55509;50.680;17.942;2023-02-01T11:24:35;99031.20;;;5.44;68.98
68506;BME280;55509;50.680;17.942;2023-02-01T11:27:36;99028.51;;;5.38;69.20
68506;BME280;55509;50.680;17.942;2023-02-01T11:30:40;99025.14;;;5.42;69.12
68506;BME280;55509;50.680;17.942;2023-02-01T11:33:45;99011.48;;;5.55;69.65
68506;BME280;55509;50.680;17.942;2023-02-01T11:36:48;99016.95;;;5.60;69.59
68506;BME280;55509;50.680;17.942;2023-02-01T11:40:34;99011.38;;;5.60;69.40
68506;BME280;55509;50.680;17.942;2023-02-01T11:43:25;99003.05;;;5.58;69.19
68506;BME280;55509;50.680;17.942;2023-02-01T11:46:34;98998.61;;;5.80;68.91
68506;BME280;55509;50.680;17.942;2023-02-01T11:49:36;98992.36;;;6.06;68.84
68506;BME280;55509;50.680;17.942;2023-02-01T12:05:24;98975.36;;;5.73;68.07
68506;BME280;55509;50.680;17.942;2023-02-01T12:08:36;98973.45;;;5.55;68.44
68506;BME280;55509;50.680;17.942;2023-02-01T12:15:08;98968.44;;;5.24;69.35
68506;BME280;55509;50.680;17.942;2023-02-01T12:43:46;98961.75;;;3.89;77.06
68506;BME280;55509;50.680;17.942;2023-02-01T12:49:58;98960.41;;;3.55;78.61
68506;BME280;55509;50.680;17.942;2023-02-01T12:56:11;98958.73;;;3.34;79.77
68506;BME280;55509;50.680;17.942;2023-02-01T12:59:24;98958.27;;;3.27;80.60
68506;BME280;55509;50.680;17.942;2023-02-01T13:08:54;98955.90;;;3.02;81.95
68506;BME280;55509;50.680;17.942;2023-02-01T13:12:00;98948.59;;;3.02;82.49
68506;BME280;55509;50.680;17.942;2023-02-01T13:15:04;98946.84;;;3.06;82.77
68506;BME280;55509;50.680;17.942;2023-02-01T13:18:11;98953.09;;;3.06;83.11
68506;BME280;55509;50.680;17.942;2023-02-01T13:21:15;98945.09;;;3.07;83.59
68506;BME280;55509;50.680;17.942;2023-02-01T13:24:24;98944.27;;;3.21;83.38
68506;BME280;55509;50.680;17.942;2023-02-01T13:27:29;98948.14;;;3.33;83.58
68506;BME280;55509;50.680;17.942;2023-02-01T13:34:02;98950.55;;;3.34;83.76
68506;BME280;55509;50.680;17.942;2023-02-01T13:37:24;98950.74;;;3.33;83.94
68506;BME280;55509;50.680;17.942;2023-02-01T13:43:30;98951.26;;;3.33;84.04
68506;BME280;55509;50.680;17.942;2023-02-01T13:46:43;98949.48;;;3.36;84.24
68506;BME280;55509;50.680;17.942;2023-02-01T13:49:45;98955.88;;;3.41;84.34
68506;BME280;55509;50.680;17.942;2023-02-01T13:55:58;98962.08;;;3.44;84.45
68506;BME280;55509;50.680;17.942;2023-02-01T13:59:00;98971.52;;;3.40;84.69
68506;BME280;55509;50.680;17.942;2023-02-01T14:08:44;98972.30;;;3.49;85.10
68506;BME280;55509;50.680;17.942;2023-02-01T14:11:51;98975.81;;;3.61;84.76
68506;BME280;55509;50.680;17.942;2023-02-01T14:14:54;98977.64;;;3.70;84.62
68506;BME280;55509;50.680;17.942;2023-02-01T14:21:46;98980.98;;;3.66;84.36
68506;BME280;55509;50.680;17.942;2023-02-01T14:24:52;98984.86;;;3.62;84.45
68506;BME280;55509;50.680;17.942;2023-02-01T14:27:55;98986.66;;;3.55;84.86
68506;BME280;55509;50.680;17.942;2023-02-01T14:30:57;98989.66;;;3.52;84.94
68506;BME280;55509;50.680;17.942;2023-02-01T14:34:00;98986.85;;;3.55;85.24
68506;BME280;55509;50.680;17.942;2023-02-01T14:37:06;98986.10;;;3.58;85.14
68506;BME280;55509;50.680;17.942;2023-02-01T14:43:15;98997.23;;;3.58;85.41
68506;BME280;55509;50.680;17.942;2023-02-01T14:46:17;98995.52;;;3.55;85.59
68506;BME280;55509;50.680;17.942;2023-02-01T14:49:18;98993.82;;;3.52;85.64
68506;BME280;55509;50.680;17.942;2023-02-01T14:52:21;98995.21;;;3.52;85.71
68506;BME280;55509;50.680;17.942;2023-02-01T15:01:50;99000.56;;;3.56;85.77
68506;BME280;55509;50.680;17.942;2023-02-01T15:04:54;99004.23;;;3.55;85.84
68506;BME280;55509;50.680;17.942;2023-02-01T15:07:57;99008.04;;;3.57;85.65
68506;BME280;55509;50.680;17.942;2023-02-01T15:11:01;99000.89;;;3.58;85.81
68506;BME280;55509;50.680;17.942;2023-02-01T15:14:11;98997.04;;;3.61;85.75
68506;BME280;55509;50.680;17.942;2023-02-01T15:20:21;98998.90;;;3.66;85.58
68506;BME280;55509;50.680;17.942;2023-02-01T15:23:23;98999.24;;;3.66;85.18
68506;BME280;55509;50.680;17.942;2023-02-01T15:26:28;98998.05;;;3.63;85.17
68506;BME280;55509;50.680;17.942;2023-02-01T15:29:30;98995.97;;;3.62;84.99
68506;BME280;55509;50.680;17.942;2023-02-01T15:32:35;98995.45;;;3.62;84.92
68506;BME280;55509;50.680;17.942;2023-02-01T15:35:40;98999.60;;;3.65;84.95
68506;BME280;55509;50.680;17.942;2023-02-01T15:38:44;99001.50;;;3.66;84.80
68506;BME280;55509;50.680;17.942;2023-02-01T15:41:50;99008.77;;;3.68;84.53
68506;BME280;55509;50.680;17.942;2023-02-01T15:44:52;99008.42;;;3.69;84.34
68506;BME280;55509;50.680;17.942;2023-02-01T15:47:54;99003.05;;;3.67;83.91
68506;BME280;55509;50.680;17.942;2023-02-01T15:50:57;99000.34;;;3.60;83.69
68506;BME280;55509;50.680;17.942;2023-02-01T15:53:59;98999.04;;;3.52;83.23
68506;BME280;55509;50.680;17.942;2023-02-01T15:57:02;99001.71;;;3.46;83.08
68506;BME280;55509;50.680;17.942;2023-02-01T16:00:18;99005.23;;;3.41;82.87
68506;BME280;55509;50.680;17.942;2023-02-01T16:03:26;99002.15;;;3.35;82.87
68506;BME280;55509;50.680;17.942;2023-02-01T16:06:29;99013.31;;;3.32;82.54
68506;BME280;55509;50.680;17.942;2023-02-01T16:09:38;99015.77;;;3.28;82.79
68506;BME280;55509;50.680;17.942;2023-02-01T16:15:42;99028.52;;;3.22;83.11
68506;BME280;55509;50.680;17.942;2023-02-01T16:18:44;99029.89;;;3.24;83.15
68506;BME280;55509;50.680;17.942;2023-02-01T16:21:46;99028.67;;;3.26;83.26
68506;BME280;55509;50.680;17.942;2023-02-01T16:24:48;99028.66;;;3.26;83.18
68506;BME280;55509;50.680;17.942;2023-02-01T16:27:49;99023.96;;;3.27;83.22
68506;BME280;55509;50.680;17.942;2023-02-01T16:30:51;99027.93;;;3.29;83.25
68506;BME280;55509;50.680;17.942;2023-02-01T16:33:53;99031.07;;;3.29;83.36
68506;BME280;55509;50.680;17.942;2023-02-01T16:36:54;99039.95;;;3.28;83.34
68506;BME280;55509;50.680;17.942;2023-02-01T16:39:58;99047.94;;;3.26;83.61
68506;BME280;55509;50.680;17.942;2023-02-01T16:43:00;99057.86;;;3.25;83.72
68506;BME280;55509;50.680;17.942;2023-02-01T16:46:01;99055.77;;;3.25;83.66
68506;BME280;55509;50.680;17.942;2023-02-01T16:49:13;99053.36;;;3.23;83.68
68506;BME280;55509;50.680;17.942;2023-02-01T16:52:19;99049.95;;;3.15;83.79
68506;BME280;55509;50.680;17.942;2023-02-01T16:55:21;99047.56;;;3.09;84.09
68506;BME280;55509;50.680;17.942;2023-02-01T16:58:23;99048.99;;;3.04;84.37
68506;BME280;55509;50.680;17.942;2023-02-01T17:01:25;99050.06;;;2.99;84.37
68506;BME280;55509;50.680;17.942;2023-02-01T17:04:26;99042.10;;;2.96;84.44
68506;BME280;55509;50.680;17.942;2023-02-01T17:07:28;99035.17;;;2.96;84.42
68506;BME280;55509;50.680;17.942;2023-02-01T17:10:30;99031.52;;;2.96;84.50
68506;BME280;55509;50.680;17.942;2023-02-01T17:13:32;99035.69;;;2.95;84.51
68506;BME280;55509;50.680;17.942;2023-02-01T17:16:34;99036.59;;;2.92;84.59
68506;BME280;55509;50.680;17.942;2023-02-01T17:19:38;99040.42;;;2.89;84.86
68506;BME280;55509;50.680;17.942;2023-02-01T17:22:50;99041.14;;;2.84;84.89
68506;BME280;55509;50.680;17.942;2023-02-01T17:25:56;99040.29;;;2.83;84.95
68506;BME280;55509;50.680;17.942;2023-02-01T17:29:19;99029.19;;;2.81;85.05
68506;BME280;55509;50.680;17.942;2023-02-01T17:32:53;99023.63;;;2.81;85.28
68506;BME280;55509;50.680;17.942;2023-02-01T17:36:00;99019.27;;;2.85;85.15
68506;BME280;55509;50.680;17.942;2023-02-01T17:39:14;99020.96;;;2.91;84.94
68506;BME280;55509;50.680;17.942;2023-02-01T17:43:02;99018.15;;;2.95;84.73
68506;BME280;55509;50.680;17.942;2023-02-01T17:46:09;99015.17;;;2.96;84.61
68506;BME280;55509;50.680;17.942;2023-02-01T17:49:25;99012.25;;;2.93;84.61
68506;BME280;55509;50.680;17.942;2023-02-01T17:52:32;99007.62;;;2.86;84.42
68506;BME280;55509;50.680;17.942;2023-02-01T17:55:46;99009.95;;;2.78;84.81
68506;BME280;55509;50.680;17.942;2023-02-01T17:58:48;99010.35;;;2.69;84.73
68506;BME280;55509;50.680;17.942;2023-02-01T18:01:58;99009.70;;;2.62;84.76
68506;BME280;55509;50.680;17.942;2023-02-01T18:09:10;99001.78;;;2.50;84.94
68506;BME280;55509;50.680;17.942;2023-02-01T18:12:17;99005.29;;;2.47;85.05
68506;BME280;55509;50.680;17.942;2023-02-01T18:15:23;98998.71;;;2.42;85.23
68506;BME280;55509;50.680;17.942;2023-02-01T18:18:25;98996.48;;;2.40;85.18
68506;BME280;55509;50.680;17.942;2023-02-01T18:24:34;98982.95;;;2.37;85.28
68506;BME280;55509;50.680;17.942;2023-02-01T18:27:37;98977.77;;;2.34;85.44
68506;BME280;55509;50.680;17.942;2023-02-01T18:30:39;98972.73;;;2.35;85.62